Latest Weather Observations for Middle Percy Island

IDQ60801

Issued at 2:02 pm EST Friday 27 February 2015 (issued every 30 minutes, with the page automatically refreshed every 10 minutes)

About weather observations | Map of weather stations | Latest weather observations for QLD | Other Formats
Station Details ID: 200001 Name: MIDDLE PERCY ISLAND Lat: -21.66 Lon: 150.27 Height: 208.7 m
Data from the previous 72 hours. | See also: Recent months at Middle Percy Island
Date/Time
EST
Temp
°C
App
Temp
°C
Dew
Point
Rel
Hum
%
Delta-T
°C
Wind Press
QNH
hPa
Press
MSL
hPa
Rain
since 9 am
mm
Dir
 
Spd
km/h
Gust
km/h
Spd
kts
Gust
kts
27/02:00pm 27.9 29.1 22.2 71 3.9 ESE 19 24 10 13 1008.3 1007.0 0.0
27/01:30pm 28.6 30.3 22.3 68 4.3 ESE 17 24 9 13 1008.6 1007.3 0.0
27/01:00pm 27.7 28.9 21.5 69 4.2 ESE 17 26 9 14 1008.8 1007.5 0.0
27/12:30pm 28.2 30.3 22.4 71 4.0 ESE 15 20 8 11 1008.9 1007.6 0.0
27/12:00pm 27.2 28.6 21.0 69 4.1 SE 15 22 8 12 1009.3 1008.0 0.0
27/11:30am 28.2 30.1 22.0 69 4.2 SE 15 22 8 12 1009.6 1008.3 0.0
27/11:00am 27.9 29.2 21.7 69 4.2 ESE 17 24 9 13 1009.8 1008.5 0.0
27/10:30am 27.0 28.4 20.3 66 4.4 SSE 13 19 7 10 1010.1 1008.9 0.0
27/10:00am 27.1 28.4 20.9 69 4.1 SSE 15 20 8 11 1010.2 1009.0 0.0
27/09:30am 26.9 28.9 21.6 72 3.6 S 13 19 7 10 1010.2 1009.0 0.0
27/09:00am 26.5 29.0 21.0 72 3.7 S 9 15 5 8 1010.1 1008.9 0.0
27/08:30am 26.3 28.8 21.1 73 3.5 SSE 9 15 5 8 1009.7 1008.4 0.0
27/08:00am 26.1 28.9 20.9 73 3.5 SSE 7 13 4 7 1009.5 1008.2 0.0
27/07:30am 25.6 28.4 20.8 75 3.2 SE 7 11 4 6 1009.3 1008.0 0.0
27/07:00am 24.9 28.0 21.0 79 2.6 SSE 6 7 3 4 1009.1 1007.8 0.0
27/06:30am 24.3 27.5 21.2 83 2.1 SE 6 7 3 4 1008.8 1007.5 0.0
27/06:00am 23.6 26.3 20.7 84 1.9 ESE 7 9 4 5 1008.6 1007.3 0.0
27/05:30am 23.7 26.0 20.6 83 2.0 E 9 13 5 7 1008.1 1006.8 0.0
27/05:00am 23.5 26.2 20.6 84 1.9 ENE 7 9 4 5 1007.8 1006.5 0.0
27/04:30am 23.7 26.6 20.6 83 2.0 NE 6 9 3 5 1007.8 1006.5 0.0
27/04:00am 23.7 26.3 20.4 82 2.2 NNE 7 9 4 5 1007.6 1006.3 0.0
27/03:30am 23.9 25.7 20.4 81 2.3 NNE 11 15 6 8 1007.9 1006.6 0.0
27/03:00am 23.9 26.2 20.6 82 2.2 NNE 9 13 5 7 1008.2 1006.9 0.0
27/02:30am 23.9 25.7 20.4 81 2.3 NNE 11 17 6 9 1007.9 1006.6 0.0
27/02:00am 24.0 26.2 20.3 80 2.4 NE 9 15 5 8 1008.2 1006.9 0.0
27/01:30am 24.1 26.1 20.0 78 2.7 NE 9 15 5 8 1008.4 1007.1 0.0
27/01:00am 24.3 26.3 20.8 81 2.3 NE 11 19 6 10 1008.6 1007.3 0.0
27/12:30am 24.4 26.4 20.7 80 2.4 NE 11 22 6 12 1008.7 1007.4 0.0
27/12:00am 24.4 25.8 21.1 82 2.2 NE 15 20 8 11 1008.8 1007.5 0.0
 
Date/Time
EST
Temp
°C
App
Temp
°C
Dew
Point
Rel
Hum
%
Delta-T
°C
Wind Press
QNH
hPa
Press
MSL
hPa
Rain
since 9 am
mm
Dir
 
Spd
km/h
Gust
km/h
Spd
kts
Gust
kts
26/11:30pm 24.4 26.7 21.3 83 2.1 NE 11 19 6 10 1009.3 1008.0 0.0
26/11:00pm 24.4 26.7 21.3 83 2.1 ENE 11 20 6 11 1009.5 1008.2 0.0
26/10:30pm 24.6 25.8 21.5 83 2.1 ENE 17 24 9 13 1009.6 1008.3 0.0
26/10:00pm 24.5 26.0 21.2 82 2.2 ENE 15 22 8 12 1009.3 1008.0 0.0
26/09:30pm 24.5 26.1 20.8 80 2.4 ENE 13 19 7 10 1009.6 1008.3 0.0
26/09:00pm 24.6 26.1 21.3 82 2.2 ENE 15 20 8 11 1009.5 1008.2 0.0
26/08:30pm 24.6 26.9 21.3 82 2.2 ENE 11 19 6 10 1009.3 1008.0 0.0
26/08:00pm 24.6 27.0 21.5 83 2.1 ENE 11 19 6 10 1008.9 1007.6 0.0
26/07:30pm 24.6 27.0 20.9 80 2.4 ENE 9 17 5 9 1008.6 1007.3 0.0
26/07:00pm 24.7 27.8 21.4 82 2.2 E 7 15 4 8 1008.3 1007.0 0.0
26/06:30pm 24.9 26.5 20.8 78 2.7 ESE 13 22 7 12 1008.1 1006.8 0.0
26/06:00pm 25.6 26.7 21.3 77 2.9 ESE 17 24 9 13 1007.8 1006.5 0.0
26/05:30pm 25.8 26.9 21.2 76 3.1 ESE 17 26 9 14 1007.6 1006.3 0.0
26/05:00pm 26.4 27.6 21.4 74 3.4 ESE 17 24 9 13 1007.1 1005.8 0.0
26/04:30pm 26.8 28.5 21.6 73 3.5 ESE 15 20 8 11 1007.0 1005.7 0.0
26/04:00pm 26.9 28.4 21.2 71 3.8 ESE 15 24 8 13 1007.0 1005.7 0.0
26/03:30pm 27.2 28.6 21.0 69 4.1 ESE 15 20 8 11 1007.0 1005.7 0.0
26/03:00pm 27.7 29.3 21.5 69 4.2 ESE 15 20 8 11 1007.1 1005.8 0.0
26/02:30pm 27.8 29.1 21.6 69 4.2 S 17 22 9 12 1007.4 1006.1 0.0
26/02:00pm 27.7 28.8 21.3 68 4.3 SSE 17 24 9 13 1007.9 1006.6 0.0
26/01:30pm 28.3 29.6 22.3 70 4.1 SSE 19 24 10 13 1008.2 1006.9 0.0
26/01:00pm 27.7 28.1 21.7 70 4.1 SSE 22 32 12 17 1008.5 1007.2 0.0
26/12:30pm 27.5 27.4 21.5 70 4.0 SSE 24 33 13 18 1008.9 1007.6 0.0
26/12:00pm 27.2 26.3 21.5 71 3.8 SSE 28 35 15 19 1009.2 1007.9 0.0
26/11:30am 27.1 26.8 22.5 76 3.1 SSE 28 37 15 20 1009.6 1008.3 0.0
26/11:00am 26.5 25.7 21.7 75 3.2 SSE 28 35 15 19 1009.7 1008.4 0.0
26/10:30am 28.2 29.2 21.7 68 4.4 SE 19 30 10 16 1010.0 1008.8 0.0
26/10:00am 27.2 27.6 21.0 69 4.1 SE 20 28 11 15 1010.2 1009.0 0.0
26/09:30am 26.6 27.4 21.4 73 3.5 SE 19 24 10 13 1010.5 1009.2 0.0
26/09:00am 27.3 28.6 22.3 74 3.4 SSE 19 22 10 12 1010.6 1009.3 0.0
26/08:30am 26.0 26.9 21.9 78 2.8 SSE 20 26 11 14 1010.4 1009.1 0.0
26/08:00am 26.4 27.9 22.0 77 3.0 SE 17 24 9 13 1009.9 1008.6 0.0
26/07:30am 25.8 27.0 21.5 77 2.9 SE 17 24 9 13 1009.9 1008.6 0.0
26/07:00am 25.1 25.9 21.4 80 2.5 SE 19 26 10 14 1009.5 1008.2 0.0
26/06:30am 24.8 25.6 21.7 83 2.1 SE 20 32 11 17 1009.3 1008.0 0.0
26/06:00am 24.5 24.9 21.8 85 1.8 SE 22 32 12 17 1008.9 1007.6 0.0
26/05:30am 24.4 25.2 21.7 85 1.8 SE 20 28 11 15 1008.7 1007.4 0.0
26/05:00am 24.4 25.3 21.9 86 1.7 SE 20 28 11 15 1008.5 1007.2 0.0
26/04:30am 24.4 24.8 21.7 85 1.8 ESE 22 30 12 16 1008.4 1007.1 0.0
26/04:00am 24.6 25.0 21.7 84 1.9 SE 22 32 12 17 1008.2 1006.9 0.0
26/03:30am 24.6 24.7 21.9 85 1.8 SE 24 39 13 21 1008.1 1006.8 0.0
26/03:00am 24.6 24.2 22.3 87 1.6 SE 28 35 15 19 1008.0 1006.7 0.0
26/02:30am 24.8 24.6 22.1 85 1.8 SE 26 37 14 20 1008.5 1007.2 0.0
26/02:00am 24.7 24.5 22.0 85 1.8 SE 26 39 14 21 1008.6 1007.3 0.0
26/01:30am 25.1 23.5 21.8 82 2.2 ESE 33 46 18 25 1008.9 1007.6 0.0
26/01:00am 25.0 24.8 22.1 84 2.0 SE 26 41 14 22 1009.3 1008.0 0.0
26/12:30am 24.9 23.8 21.8 83 2.1 ESE 30 39 16 21 1009.5 1008.2 0.0
26/12:00am 25.0 23.5 22.1 84 2.0 ESE 33 44 18 24 1009.6 1008.3 0.0
 
Date/Time
EST
Temp
°C
App
Temp
°C
Dew
Point
Rel
Hum
%
Delta-T
°C
Wind Press
QNH
hPa
Press
MSL
hPa
Rain
since 9 am
mm
Dir
 
Spd
km/h
Gust
km/h
Spd
kts
Gust
kts
25/11:30pm 25.1 24.3 22.4 85 1.8 ESE 30 39 16 21 1009.9 1008.6 0.0
25/11:00pm 25.1 24.8 22.6 86 1.7 SE 28 41 15 22 1010.1 1008.9 0.0
25/10:30pm 25.1 24.5 22.6 86 1.7 ESE 30 41 16 22 1010.2 1009.0 0.0
25/10:00pm 25.2 24.5 22.5 85 1.8 ESE 30 41 16 22 1010.1 1008.9 0.0
25/09:30pm 25.2 24.9 22.5 85 1.8 SE 28 37 15 20 1010.1 1008.9 0.0
25/09:00pm 25.1 25.3 22.8 87 1.6 SE 26 39 14 21 1009.9 1008.6 0.0
25/08:30pm 25.2 24.5 22.5 85 1.8 ESE 30 39 16 21 1009.6 1008.3 0.0
25/08:00pm 25.2 24.4 22.3 84 2.0 SE 30 43 16 23 1009.1 1007.8 0.0
25/07:30pm 25.2 23.8 22.3 84 2.0 ESE 33 44 18 24 1008.8 1007.5 0.0
25/07:00pm 25.2 23.5 22.5 85 1.8 ESE 35 44 19 24 1008.6 1007.3 0.0
25/06:30pm 25.3 22.8 22.4 84 2.0 ESE 39 50 21 27 1008.3 1007.0 0.0
25/06:00pm 25.5 24.1 22.2 82 2.2 ESE 33 50 18 27 1008.0 1006.7 0.0
25/05:30pm 26.0 24.8 22.3 80 2.5 SE 32 46 17 25 1008.0 1006.7 0.0
25/05:00pm 26.1 25.8 22.6 81 2.4 SE 28 39 15 21 1008.0 1006.7 0.0
25/04:30pm 26.6 25.3 22.4 78 2.9 SE 33 48 18 26 1007.9 1006.6 0.0
25/04:00pm 27.1 26.3 23.1 79 2.7 SE 32 46 17 25 1008.0 1006.7 0.0
25/03:30pm 27.4 26.9 22.8 76 3.1 SE 30 43 16 23 1008.2 1006.9 0.0
25/03:00pm 27.5 27.3 22.7 75 3.3 SE 28 41 15 22 1008.3 1007.0 0.0
25/02:30pm 27.3 27.0 22.5 75 3.3 SE 28 37 15 20 1008.4 1007.1 0.0
25/02:00pm 27.9 26.5 22.2 71 3.9 SSE 33 41 18 22 1008.6 1007.3 0.0
25/01:30pm 28.4 28.3 22.9 72 3.8 SSE 28 35 15 19 1008.8 1007.5 0.0
25/01:00pm 28.2 27.3 22.9 73 3.6 SSE 32 37 17 20 1009.2 1007.9 0.0
25/12:30pm 27.8 27.0 22.3 72 3.7 SSE 30 39 16 21 1009.6 1008.3 0.0
25/12:00pm 27.6 27.5 22.3 73 3.6 S 26 33 14 18 1010.0 1008.8 0.0
25/11:30am 26.8 26.3 22.2 76 3.1 SSE 28 35 15 19 1010.4 1009.1 0.0
25/11:00am 26.6 26.5 22.2 77 3.0 SSE 26 35 14 19 1010.8 1009.5 0.0
25/10:30am 26.7 26.1 21.9 75 3.2 SSE 28 39 15 21 1010.8 1009.5 0.0
25/10:00am 26.5 25.4 21.7 75 3.2 S 30 37 16 20 1011.0 1009.7 0.0
25/09:30am 26.5 26.2 22.6 79 2.7 S 28 37 15 20 1011.1 1009.8 0.0
25/09:00am 26.1 25.2 22.2 79 2.6 S 30 39 16 21 1010.9 1009.6 0.0
25/08:30am 25.8 25.1 22.5 82 2.2 S 30 39 16 21 1010.8 1009.5 0.0
25/08:00am 25.5 25.0 22.8 85 1.8 S 30 43 16 23 1010.8 1009.5 0.0
25/07:30am 25.0 25.4 22.5 86 1.7 SSE 24 33 13 18 1010.7 1009.4 0.0
25/07:00am 24.3 25.2 22.6 90 1.2 SSE 22 30 12 16 1010.5 1009.2 0.0
25/06:30am 24.5 25.6 22.4 88 1.4 SSE 20 26 11 14 1010.2 1009.0 0.0
25/06:00am 24.2 25.2 22.1 88 1.4 SSE 20 26 11 14 1010.0 1008.8 0.0
25/05:30am 24.3 25.4 22.0 87 1.5 SSE 19 24 10 13 1009.9 1008.6 0.0
25/05:00am 24.4 24.8 21.7 85 1.8 SSE 22 30 12 16 1009.6 1008.3 0.0
25/04:30am 24.5 25.5 22.2 87 1.5 SSE 20 28 11 15 1009.3 1008.0 0.0
25/04:00am 24.6 25.7 21.9 85 1.8 SSE 19 24 10 13 1009.1 1007.8 0.0
25/03:30am 24.6 25.9 22.7 89 1.3 SSE 20 28 11 15 1009.1 1007.8 0.0
25/03:00am 24.6 26.0 22.5 88 1.4 SSE 19 24 10 13 1009.2 1007.9 0.0
25/02:30am 25.0 25.6 22.1 84 2.0 SE 22 32 12 17 1009.2 1007.9 0.0
25/02:00am 25.0 26.1 22.3 85 1.8 SE 20 32 11 17 1009.3 1008.0 0.0
25/01:30am 25.2 26.7 23.1 88 1.4 SE 20 28 11 15 1009.7 1008.4 0.0
25/01:00am 25.1 26.9 23.2 89 1.3 SE 19 26 10 14 1010.0 1008.8 0.0
25/12:30am 25.2 26.7 23.1 88 1.4 SE 20 28 11 15 1010.4 1009.1 0.0
25/12:00am 25.3 26.8 23.0 87 1.6 SE 20 30 11 16 1010.5 1009.2 0.0
 
Date/Time
EST
Temp
°C
App
Temp
°C
Dew
Point
Rel
Hum
%
Delta-T
°C
Wind Press
QNH
hPa
Press
MSL
hPa
Rain
since 9 am
mm
Dir
 
Spd
km/h
Gust
km/h
Spd
kts
Gust
kts
24/11:30pm 25.2 26.2 22.9 87 1.6 SE 22 30 12 16 1010.7 1009.4 0.0
24/11:00pm 25.3 26.3 22.8 86 1.7 SE 22 28 12 15 1010.5 1009.2 0.0
24/10:30pm 25.4 27.0 23.3 88 1.4 ESE 20 26 11 14 1010.5 1009.2 0.0
24/10:00pm 25.1 27.8 22.8 87 1.6 ESE 13 22 7 12 1010.0 1008.8 0.0
24/09:30pm 25.1 27.9 23.0 88 1.4 E 13 20 7 11 1010.0 1008.8 0.0
24/09:00pm 25.2 27.8 22.7 86 1.7 E 13 20 7 11 1010.2 1009.0 0.0
24/08:30pm 25.2 27.6 22.3 84 2.0 E 13 19 7 10 1010.2 1009.0 0.0
24/08:00pm 25.2 27.5 22.1 83 2.1 E 13 22 7 12 1010.0 1008.8 0.0
24/07:30pm 25.1 27.8 22.2 84 2.0 E 11 20 6 11 1009.4 1008.1 0.0
24/07:00pm 25.0 28.3 22.5 86 1.7 E 9 17 5 9 1009.2 1007.9 0.0
24/06:30pm 25.1 27.1 22.2 84 2.0 ESE 15 22 8 12 1009.1 1007.8 0.0
24/06:00pm 25.8 27.2 22.5 82 2.2 ESE 19 24 10 13 1009.1 1007.8 0.0
24/05:30pm 25.8 27.2 22.5 82 2.2 ESE 19 26 10 14 1008.9 1007.6 0.0
24/05:00pm 26.6 27.7 22.4 78 2.9 ESE 20 26 11 14 1008.8 1007.5 0.0
24/04:30pm 27.0 28.6 22.8 78 2.9 ESE 19 28 10 15 1009.0 1007.7 0.0
24/04:00pm 26.9 27.8 22.7 78 2.9 ESE 22 28 12 15 1008.7 1007.4 0.0
24/03:30pm 27.4 28.9 23.0 77 3.0 ESE 20 26 11 14 1008.7 1007.4 0.0
24/03:00pm 27.6 29.4 23.2 77 3.0 ESE 19 26 10 14 1008.9 1007.6 0.0
24/02:30pm 27.7 29.8 23.1 76 3.2 ESE 17 22 9 12 1009.1 1007.8 0.0

Other Formats:

Comma delimited format used in spreadsheet applications
http://www.bom.gov.au/fwo/IDQ60801/IDQ60801.94372.axf

JavaScript Object Notation format (JSON) in row-major order
http://www.bom.gov.au/fwo/IDQ60801/IDQ60801.94372.json